Time;durP1;ratioP1;P1;durP2;ratioP2;P2;SDS_P1;SDS_P2;PMS_P1;PMS_P2;Temp;Humidity;BMP_temperature;BMP_pressure;BME280_temperature;BME280_humidity;BME280_pressure;Samples;Min_cycle;Max_cycle;Signal;HPM_P1;HPM_P2
2021/07/07 00:01:36;;;;;;;2.63;1.63;;;15.00;99.90;;;;;;4949275;28;20252;-87
2021/07/07 00:04:02;;;;;;;6.13;2.57;;;15.00;99.90;;;;;;4965134;28;20237;-87
2021/07/07 00:06:28;;;;;;;4.30;1.70;;;14.90;99.90;;;;;;4949115;28;20325;-86
2021/07/07 00:08:54;;;;;;;10.03;2.07;;;14.90;99.90;;;;;;4964846;28;20717;-87
2021/07/07 00:11:20;;;;;;;6.17;2.43;;;14.90;99.90;;;;;;4948973;28;20181;-87
2021/07/07 00:13:46;;;;;;;7.40;2.20;;;14.90;99.90;;;;;;4949691;28;20205;-87
2021/07/07 00:16:12;;;;;;;6.67;2.00;;;14.90;99.90;;;;;;4965477;28;20684;-88
2021/07/07 00:18:38;;;;;;;5.63;2.23;;;14.90;99.90;;;;;;4950425;28;20781;-87
2021/07/07 00:21:04;;;;;;;5.43;2.03;;;14.90;99.90;;;;;;4965573;28;20273;-88
2021/07/07 00:23:31;;;;;;;2.40;1.90;;;14.90;99.90;;;;;;4964910;28;20190;-87
2021/07/07 00:25:58;;;;;;;5.47;2.53;;;14.80;99.90;;;;;;4950721;28;20342;-88
2021/07/07 00:28:24;;;;;;;3.53;1.67;;;14.80;99.90;;;;;;4949496;28;20228;-87
2021/07/07 00:30:51;;;;;;;13.60;3.23;;;14.80;99.90;;;;;;4965165;28;20217;-87
2021/07/07 00:33:18;;;;;;;7.60;1.87;;;14.80;99.90;;;;;;4950131;28;20259;-88
2021/07/07 00:35:45;;;;;;;2.37;1.20;;;14.70;99.90;;;;;;4950412;28;20217;-87
2021/07/07 00:38:12;;;;;;;13.40;2.43;;;14.70;99.90;;;;;;4949295;29;20237;-88
2021/07/07 00:40:42;;;;;;;3.93;1.93;;;14.60;99.90;;;;;;4949321;28;20722;-86
2021/07/07 00:43:09;;;;;;;6.47;1.87;;;14.60;99.90;;;;;;4948923;28;20291;-87
2021/07/07 00:45:35;;;;;;;6.73;1.50;;;14.50;99.90;;;;;;4963850;28;20605;-87
2021/07/07 00:48:01;;;;;;;4.27;1.40;;;14.50;99.90;;;;;;4964903;28;20213;-88
2021/07/07 00:50:27;;;;;;;6.43;2.33;;;14.50;99.90;;;;;;4948558;28;20675;-88
2021/07/07 00:52:56;;;;;;;4.03;1.93;;;14.50;99.90;;;;;;4965231;28;20201;-86
2021/07/07 00:55:23;;;;;;;4.20;2.00;;;14.50;99.90;;;;;;4949752;28;20229;-87
2021/07/07 00:57:50;;;;;;;4.93;2.33;;;14.50;99.90;;;;;;4948234;28;20229;-88
2021/07/07 01:00:20;;;;;;;8.77;2.07;;;14.50;99.90;;;;;;4949969;28;20307;-88
2021/07/07 01:02:47;;;;;;;3.03;1.77;;;14.50;99.90;;;;;;4949739;28;20239;-88
2021/07/07 01:05:15;;;;;;;8.20;2.33;;;14.50;99.90;;;;;;4949585;28;20633;-88
2021/07/07 01:07:41;;;;;;;1.93;1.70;;;14.40;99.90;;;;;;4949069;28;20189;-89
2021/07/07 01:10:09;;;;;;;9.53;2.10;;;14.40;99.90;;;;;;4948654;28;20664;-86
2021/07/07 01:12:35;;;;;;;8.53;2.00;;;14.40;99.90;;;;;;4948338;28;20217;-88
2021/07/07 01:15:03;;;;;;;6.77;2.23;;;14.40;99.90;;;;;;4948283;28;20276;-87
2021/07/07 01:17:47;;;;;;;5.30;2.00;;;14.30;99.90;;;;;;5078753;27;20583;-88
2021/07/07 01:20:17;;;;;;;9.20;2.60;;;14.30;99.90;;;;;;5030137;28;20189;-85
2021/07/07 01:22:44;;;;;;;3.83;1.57;;;14.40;99.90;;;;;;5032599;28;20175;-84
2021/07/07 01:25:12;;;;;;;2.10;1.60;;;14.40;99.90;;;;;;5030953;28;20306;-88
2021/07/07 01:27:40;;;;;;;3.20;1.50;;;14.40;99.90;;;;;;5029097;28;21216;-85
2021/07/07 01:30:08;;;;;;;8.03;1.70;;;14.40;99.90;;;;;;5022822;28;20226;-84
2021/07/07 01:32:34;;;;;;;5.07;1.90;;;14.40;99.90;;;;;;5022689;28;20268;-85
2021/07/07 01:35:01;;;;;;;2.57;1.97;;;14.40;99.90;;;;;;5023380;28;20195;-86
2021/07/07 01:37:27;;;;;;;5.77;2.90;;;14.30;99.90;;;;;;5023373;28;20240;-85
2021/07/07 01:39:53;;;;;;;4.63;2.50;;;14.30;99.90;;;;;;5022451;28;20260;-84
2021/07/07 01:42:19;;;;;;;2.27;1.13;;;14.30;99.90;;;;;;5005970;28;20221;-84
2021/07/07 01:44:45;;;;;;;3.83;1.60;;;14.30;99.90;;;;;;5022582;28;20805;-84
2021/07/07 01:47:10;;;;;;;7.23;1.90;;;14.30;99.90;;;;;;5005514;28;20190;-85
2021/07/07 01:49:36;;;;;;;2.10;2.00;;;14.30;99.90;;;;;;5022264;28;20214;-84
2021/07/07 01:52:02;;;;;;;5.20;2.20;;;14.30;99.90;;;;;;5014320;28;20361;-87
2021/07/07 01:54:28;;;;;;;5.73;1.70;;;14.30;99.90;;;;;;5033019;28;20275;-84
2021/07/07 01:56:54;;;;;;;2.83;1.40;;;14.30;99.90;;;;;;5006232;28;20226;-85
2021/07/07 01:59:19;;;;;;;5.67;2.00;;;14.20;99.90;;;;;;5005977;28;20736;-84
2021/07/07 02:01:45;;;;;;;2.87;1.63;;;14.20;99.90;;;;;;5023607;28;20657;-85
2021/07/07 02:04:11;;;;;;;3.57;2.20;;;14.20;99.90;;;;;;5014918;28;20250;-84
2021/07/07 02:06:40;;;;;;;5.87;2.37;;;14.20;99.90;;;;;;5003593;28;20297;-88
2021/07/07 02:09:07;;;;;;;1.80;1.67;;;14.20;99.90;;;;;;4993318;28;20273;-87
2021/07/07 02:11:35;;;;;;;8.43;1.63;;;14.20;99.90;;;;;;5032020;28;20729;-84
2021/07/07 02:14:01;;;;;;;6.77;2.17;;;14.10;99.90;;;;;;5015804;28;20194;-87
2021/07/07 02:16:27;;;;;;;2.57;1.77;;;14.10;99.90;;;;;;5021762;28;20314;-84
2021/07/07 02:18:53;;;;;;;2.30;1.17;;;14.10;99.90;;;;;;5002161;28;20234;-84
2021/07/07 02:21:19;;;;;;;3.40;1.67;;;14.10;99.90;;;;;;5024538;28;20206;-86
2021/07/07 02:23:45;;;;;;;8.07;1.53;;;14.00;99.90;;;;;;5022108;28;20247;-84
2021/07/07 02:26:11;;;;;;;3.60;1.90;;;14.00;99.90;;;;;;5022541;28;20198;-84
2021/07/07 02:28:36;;;;;;;2.50;1.20;;;14.00;99.90;;;;;;4994136;28;20206;-87
2021/07/07 02:31:02;;;;;;;6.10;1.70;;;14.00;99.90;;;;;;5008041;28;20326;-84
2021/07/07 02:33:28;;;;;;;5.40;2.00;;;14.00;99.90;;;;;;5017339;28;20342;-86
2021/07/07 02:35:55;;;;;;;2.80;1.57;;;14.10;99.90;;;;;;5000196;28;20269;-85
2021/07/07 02:38:23;;;;;;;3.00;2.10;;;14.00;99.90;;;;;;5016701;28;20199;-84
2021/07/07 02:40:52;;;;;;;2.27;1.43;;;14.10;99.90;;;;;;5017455;28;20178;-84
2021/07/07 02:43:18;;;;;;;2.37;2.27;;;14.10;99.90;;;;;;5019788;28;20221;-85
2021/07/07 02:45:44;;;;;;;5.60;2.07;;;14.10;99.90;;;;;;5007298;28;20209;-88
2021/07/07 02:48:12;;;;;;;3.17;2.20;;;14.10;99.90;;;;;;4991387;28;20298;-84
2021/07/07 02:50:38;;;;;;;3.53;2.20;;;14.00;99.90;;;;;;5019011;28;20198;-85
2021/07/07 02:53:06;;;;;;;6.47;1.97;;;14.10;99.90;;;;;;5018767;28;20202;-85
2021/07/07 02:55:33;;;;;;;12.60;1.80;;;14.00;99.90;;;;;;5016728;28;20585;-85
2021/07/07 02:57:59;;;;;;;2.40;1.33;;;14.10;99.90;;;;;;5016070;28;20280;-87
2021/07/07 03:00:34;;;;;;;2.07;1.43;;;14.00;99.90;;;;;;5002148;28;20322;-85
2021/07/07 03:03:06;;;;;;;3.33;1.97;;;14.00;99.90;;;;;;5016849;28;20198;-85
2021/07/07 03:05:34;;;;;;;3.53;1.70;;;14.00;99.90;;;;;;5014187;28;20219;-87
2021/07/07 03:08:00;;;;;;;4.00;1.80;;;14.00;99.90;;;;;;5014290;28;20187;-89
2021/07/07 03:10:26;;;;;;;2.40;2.10;;;14.00;99.90;;;;;;5007258;28;20559;-87
2021/07/07 03:12:52;;;;;;;2.00;1.40;;;14.00;99.90;;;;;;5007040;28;20225;-89
2021/07/07 03:15:18;;;;;;;2.80;1.40;;;13.90;99.90;;;;;;5013936;28;20214;-87
2021/07/07 03:17:44;;;;;;;1.80;1.17;;;13.90;99.90;;;;;;4998062;28;20294;-86
2021/07/07 03:20:10;;;;;;;3.10;1.47;;;13.90;99.90;;;;;;5008489;28;20540;-87
2021/07/07 03:22:36;;;;;;;3.67;2.00;;;13.90;99.90;;;;;;5013053;28;20242;-86
2021/07/07 03:25:04;;;;;;;2.23;1.87;;;13.90;99.90;;;;;;5007346;28;20270;-86
2021/07/07 03:27:33;;;;;;;5.67;1.30;;;13.80;99.90;;;;;;4998623;28;20688;-90
2021/07/07 03:29:58;;;;;;;3.13;2.20;;;13.90;99.90;;;;;;4999102;28;20221;-85
2021/07/07 03:32:24;;;;;;;3.93;1.77;;;13.80;99.90;;;;;;5017250;28;20187;-84
2021/07/07 03:34:50;;;;;;;3.47;1.43;;;13.70;99.90;;;;;;5016274;28;20187;-85
2021/07/07 03:37:16;;;;;;;3.67;2.03;;;13.60;99.90;;;;;;5014015;28;20218;-88
2021/07/07 03:39:42;;;;;;;2.00;1.43;;;13.50;99.90;;;;;;5006959;28;20212;-84
2021/07/07 03:42:08;;;;;;;3.27;2.10;;;13.30;99.90;;;;;;5007632;28;20756;-85
2021/07/07 03:44:34;;;;;;;5.67;1.80;;;13.30;99.90;;;;;;4999220;28;20706;-85
2021/07/07 03:47:00;;;;;;;4.80;3.13;;;13.20;99.90;;;;;;5017890;28;20651;-85
2021/07/07 03:49:25;;;;;;;5.67;2.07;;;13.10;99.90;;;;;;5007722;28;20218;-85
2021/07/07 03:51:51;;;;;;;3.13;2.03;;;13.10;99.90;;;;;;5017213;28;20301;-86
2021/07/07 03:54:17;;;;;;;2.20;2.00;;;13.10;99.90;;;;;;5007862;28;20219;-86
2021/07/07 03:56:43;;;;;;;2.67;1.90;;;13.00;99.90;;;;;;4999923;28;20313;-85
2021/07/07 03:59:09;;;;;;;2.33;2.00;;;13.00;99.90;;;;;;4991764;28;20656;-85
2021/07/07 04:01:34;;;;;;;3.00;2.53;;;13.00;99.90;;;;;;4999590;28;20301;-84
2021/07/07 04:04:00;;;;;;;2.57;2.17;;;13.00;99.90;;;;;;5006677;28;20214;-85
2021/07/07 04:06:26;;;;;;;3.67;2.10;;;13.00;99.90;;;;;;5007193;28;21314;-85
2021/07/07 04:08:52;;;;;;;4.27;1.87;;;13.10;99.90;;;;;;5006872;28;20222;-87
2021/07/07 04:11:17;;;;;;;5.43;2.03;;;13.20;99.90;;;;;;4990070;28;20229;-85
2021/07/07 04:13:43;;;;;;;2.83;1.60;;;13.30;99.90;;;;;;5000184;28;20187;-85
2021/07/07 04:16:09;;;;;;;5.23;1.97;;;13.40;99.90;;;;;;5003064;28;20269;-85
2021/07/07 04:18:34;;;;;;;9.40;2.50;;;13.50;99.90;;;;;;4993543;28;20210;-88
2021/07/07 04:21:00;;;;;;;4.27;2.00;;;13.50;99.90;;;;;;5002185;28;20244;-87
2021/07/07 04:23:26;;;;;;;4.33;2.17;;;13.60;99.90;;;;;;5019182;28;20222;-87
2021/07/07 04:25:52;;;;;;;3.33;2.67;;;13.60;99.90;;;;;;4995133;28;20217;-85
2021/07/07 04:28:17;;;;;;;8.37;2.30;;;13.70;99.90;;;;;;5009525;28;20717;-88
2021/07/07 04:30:43;;;;;;;2.73;1.73;;;13.70;99.90;;;;;;4994883;28;20272;-85
2021/07/07 04:33:09;;;;;;;5.97;2.10;;;13.80;99.90;;;;;;5002088;28;20218;-85
2021/07/07 04:35:35;;;;;;;6.43;2.70;;;13.80;99.90;;;;;;4985962;28;20234;-87
2021/07/07 04:38:00;;;;;;;3.13;1.70;;;13.90;99.90;;;;;;4993315;28;20190;-87
2021/07/07 04:40:26;;;;;;;2.03;1.70;;;13.90;99.90;;;;;;4993339;28;20213;-85
2021/07/07 04:42:53;;;;;;;2.30;1.83;;;13.90;99.90;;;;;;5009224;28;21002;-85
2021/07/07 04:45:19;;;;;;;3.10;1.83;;;14.00;99.90;;;;;;4993425;28;20221;-85
2021/07/07 04:47:46;;;;;;;3.00;2.17;;;14.00;99.90;;;;;;5017280;28;20225;-86
2021/07/07 04:50:15;;;;;;;1.80;1.60;;;14.00;99.90;;;;;;5020077;28;20221;-84
2021/07/07 04:52:41;;;;;;;3.23;1.50;;;14.00;99.90;;;;;;5018866;28;20226;-85
2021/07/07 04:55:09;;;;;;;3.07;1.93;;;14.10;99.90;;;;;;5019610;28;20546;-85
2021/07/07 04:57:41;;;;;;;6.00;1.50;;;14.20;99.90;;;;;;5001797;28;20230;-85
2021/07/07 05:00:07;;;;;;;2.90;1.97;;;14.20;99.90;;;;;;5018800;28;20225;-88
2021/07/07 05:02:33;;;;;;;2.83;2.27;;;14.30;99.90;;;;;;5018383;28;20232;-85
2021/07/07 05:05:01;;;;;;;4.77;2.33;;;14.30;99.90;;;;;;5009067;28;20190;-85
2021/07/07 05:07:27;;;;;;;6.00;2.23;;;14.30;99.90;;;;;;5009156;28;20210;-85
2021/07/07 05:09:53;;;;;;;1.90;1.70;;;14.40;99.90;;;;;;5006213;28;20222;-88
2021/07/07 05:12:18;;;;;;;2.47;1.83;;;14.50;99.90;;;;;;4977431;28;20230;-85
2021/07/07 05:14:44;;;;;;;4.23;1.83;;;14.50;99.90;;;;;;4987200;28;20589;-86
2021/07/07 05:17:12;;;;;;;1.63;1.53;;;14.70;99.90;;;;;;4992293;28;20230;-84
2021/07/07 05:19:38;;;;;;;6.33;1.97;;;14.80;99.90;;;;;;5001640;28;20210;-85
2021/07/07 05:22:04;;;;;;;3.00;2.57;;;15.20;99.90;;;;;;5016016;28;20709;-86
2021/07/07 05:24:30;;;;;;;3.87;1.97;;;16.70;99.90;;;;;;5015154;28;20252;-88
2021/07/07 05:26:55;;;;;;;5.00;2.07;;;17.50;99.90;;;;;;5009085;28;20214;-85
2021/07/07 05:29:21;;;;;;;2.77;1.90;;;17.00;99.90;;;;;;4992626;28;20181;-85
2021/07/07 05:31:52;;;;;;;11.50;2.30;;;18.10;99.90;;;;;;5017447;28;21280;-84
2021/07/07 05:34:18;;;;;;;2.57;2.07;;;19.90;99.90;;;;;;5000748;28;20218;-83
2021/07/07 05:36:43;;;;;;;2.60;2.03;;;20.20;99.90;;;;;;4992434;28;20238;-84
2021/07/07 05:39:09;;;;;;;4.97;2.07;;;21.00;99.90;;;;;;4992298;28;20710;-84
2021/07/07 05:41:35;;;;;;;2.30;2.10;;;21.60;99.90;;;;;;5009383;28;20300;-86
2021/07/07 05:44:00;;;;;;;2.80;2.17;;;22.30;99.90;;;;;;5008424;28;20270;-87
2021/07/07 05:46:29;;;;;;;3.63;2.10;;;22.10;99.90;;;;;;5009116;28;20691;-86
2021/07/07 05:48:55;;;;;;;1.90;1.70;;;21.70;99.90;;;;;;5008298;28;20221;-87
2021/07/07 05:51:21;;;;;;;4.90;1.63;;;22.20;99.90;;;;;;5007881;28;20516;-83
2021/07/07 05:53:47;;;;;;;4.33;2.50;;;22.50;99.90;;;;;;4982968;28;20207;-85
2021/07/07 05:56:12;;;;;;;2.93;1.53;;;23.10;99.90;;;;;;4972876;28;20418;-86
2021/07/07 05:58:39;;;;;;;1.83;1.67;;;23.00;99.90;;;;;;5002176;28;20419;-87
2021/07/07 06:01:04;;;;;;;7.00;2.60;;;23.40;99.90;;;;;;5019604;28;20245;-87
2021/07/07 06:03:30;;;;;;;2.80;2.00;;;23.50;99.90;;;;;;5020031;28;20433;-85
2021/07/07 06:05:59;;;;;;;3.43;1.57;;;23.30;99.90;;;;;;4996418;28;20274;-84
2021/07/07 06:08:25;;;;;;;3.60;1.50;;;22.70;99.90;;;;;;5021413;28;20277;-86
2021/07/07 06:10:51;;;;;;;1.83;1.70;;;23.20;99.90;;;;;;4995619;28;20336;-87
2021/07/07 06:13:16;;;;;;;3.77;2.13;;;23.80;99.90;;;;;;5012260;28;20237;-87
2021/07/07 06:15:42;;;;;;;2.80;1.93;;;23.30;99.90;;;;;;5003664;28;20237;-84
2021/07/07 06:18:08;;;;;;;2.55;2.08;;;23.60;99.90;;;;;;5010501;28;20721;-87
2021/07/07 06:20:35;;;;;;;2.23;2.00;;;23.80;99.90;;;;;;4995443;28;20804;-84
2021/07/07 06:23:01;;;;;;;2.90;1.90;;;23.10;99.90;;;;;;5021383;28;20186;-84
2021/07/07 06:25:27;;;;;;;2.90;1.90;;;23.30;99.90;;;;;;4995293;28;20210;-82
2021/07/07 06:27:54;;;;;;;2.47;1.80;;;23.20;99.90;;;;;;5020399;28;20890;-82
2021/07/07 06:30:25;;;;;;;2.90;2.42;;;22.60;99.90;;;;;;5011083;28;20213;-82
2021/07/07 06:32:53;;;;;;;3.22;2.20;;;22.80;99.90;;;;;;5026939;28;20216;-85
2021/07/07 06:35:19;;;;;;;4.37;1.87;;;22.80;99.90;;;;;;5035326;28;20281;-84
2021/07/07 06:37:46;;;;;;;4.80;2.05;;;23.40;99.90;;;;;;5019268;28;20190;-83
2021/07/07 06:40:13;;;;;;;2.90;1.42;;;23.00;99.90;;;;;;5002939;28;20232;-84
2021/07/07 06:42:39;;;;;;;3.22;2.13;;;22.90;99.90;;;;;;5017570;28;20574;-83
2021/07/07 06:45:07;;;;;;;2.10;1.90;;;23.00;99.90;;;;;;5035230;28;20206;-83
2021/07/07 06:47:33;;;;;;;5.28;2.13;;;23.30;99.90;;;;;;5011607;28;20886;-84
2021/07/07 06:50:00;;;;;;;3.92;2.33;;;23.30;99.90;;;;;;5018603;28;21157;-84
2021/07/07 06:52:26;;;;;;;1.83;1.73;;;23.70;99.90;;;;;;5017345;28;20584;-84
2021/07/07 06:54:54;;;;;;;3.03;1.80;;;23.60;99.90;;;;;;5011622;28;20221;-83
2021/07/07 06:57:20;;;;;;;3.00;1.90;;;23.50;99.90;;;;;;5009071;28;20587;-84
2021/07/07 06:59:46;;;;;;;3.05;1.52;;;23.60;99.90;;;;;;5011894;28;20259;-83
2021/07/07 07:02:12;;;;;;;2.45;1.70;;;23.70;99.90;;;;;;5010907;28;20201;-85
2021/07/07 07:04:37;;;;;;;2.45;1.90;;;23.70;99.90;;;;;;4986418;28;20229;-84
2021/07/07 07:07:03;;;;;;;2.50;1.40;;;23.40;99.90;;;;;;4996349;28;20292;-85
2021/07/07 07:09:29;;;;;;;4.40;1.58;;;23.70;99.90;;;;;;5010054;28;20210;-86
2021/07/07 07:11:55;;;;;;;2.33;1.42;;;23.50;99.90;;;;;;5009713;28;20218;-85
2021/07/07 07:14:21;;;;;;;2.75;1.92;;;23.40;99.90;;;;;;4987052;28;20189;-85
2021/07/07 07:16:47;;;;;;;2.95;1.83;;;24.00;99.90;;;;;;5003175;28;20318;-86
2021/07/07 07:19:15;;;;;;;2.55;1.70;;;24.30;99.90;;;;;;5020752;28;20306;-87
2021/07/07 07:21:42;;;;;;;1.83;1.30;;;24.50;99.90;;;;;;4994803;28;20219;-86
2021/07/07 07:24:08;;;;;;;1.98;1.77;;;24.70;99.90;;;;;;5021081;28;20206;-84
2021/07/07 07:26:37;;;;;;;2.95;1.40;;;24.20;99.90;;;;;;5011119;28;20710;-84
2021/07/07 07:29:05;;;;;;;3.25;1.40;;;23.10;99.90;;;;;;5018603;28;20204;-87
2021/07/07 07:31:32;;;;;;;1.55;1.45;;;22.10;99.90;;;;;;5019911;28;20832;-84
2021/07/07 07:33:57;;;;;;;2.45;1.67;;;21.70;99.90;;;;;;5009391;28;20274;-83
2021/07/07 07:36:23;;;;;;;3.80;1.70;;;22.50;99.90;;;;;;4993161;28;20281;-84
2021/07/07 07:38:58;;;;;;;1.90;1.50;;;23.60;99.90;;;;;;5003662;28;20206;-83
2021/07/07 07:41:28;;;;;;;3.28;2.90;;;24.30;99.90;;;;;;5003085;28;20180;-85
2021/07/07 07:43:53;;;;;;;4.13;1.77;;;24.60;99.90;;;;;;5021237;28;20175;-85
2021/07/07 07:46:19;;;;;;;2.95;1.60;;;24.30;99.90;;;;;;4993355;28;20232;-85
2021/07/07 07:48:45;;;;;;;4.30;1.90;;;23.50;99.90;;;;;;5003002;28;20214;-84
2021/07/07 07:51:11;;;;;;;2.50;2.00;;;23.40;99.90;;;;;;4994785;28;20832;-86
2021/07/07 07:53:36;;;;;;;1.60;1.35;;;23.80;99.90;;;;;;4995059;28;20275;-84
2021/07/07 07:56:02;;;;;;;2.63;1.63;;;23.20;99.90;;;;;;5019769;28;20221;-86
2021/07/07 07:58:28;;;;;;;4.03;2.30;;;23.90;99.90;;;;;;4993265;28;20206;-87
2021/07/07 08:00:54;;;;;;;3.67;2.53;;;25.10;99.90;;;;;;4993313;28;20635;-84
2021/07/07 08:03:20;;;;;;;4.68;1.73;;;25.00;99.90;;;;;;5009966;28;20207;-84
2021/07/07 08:05:45;;;;;;;1.60;1.50;;;24.50;99.90;;;;;;5003174;28;20214;-85
2021/07/07 08:08:11;;;;;;;1.52;1.42;;;24.40;99.90;;;;;;4993802;28;20187;-85
2021/07/07 08:10:38;;;;;;;3.75;1.50;;;24.90;99.90;;;;;;5009015;28;20588;-84
2021/07/07 08:13:04;;;;;;;3.63;1.60;;;24.80;99.90;;;;;;5009643;28;20788;-84
2021/07/07 08:15:30;;;;;;;2.15;1.55;;;22.90;99.90;;;;;;5009649;28;20210;-84
2021/07/07 08:17:57;;;;;;;2.75;1.77;;;22.30;99.90;;;;;;5010214;28;20228;-84
2021/07/07 08:20:24;;;;;;;3.10;1.52;;;22.30;99.90;;;;;;5018454;28;20701;-85
2021/07/07 08:22:51;;;;;;;3.03;1.60;;;22.40;99.90;;;;;;5009871;28;20236;-87
2021/07/07 08:25:19;;;;;;;2.45;1.60;;;22.30;99.90;;;;;;5008489;28;20210;-87
2021/07/07 08:27:46;;;;;;;3.88;1.88;;;22.00;99.90;;;;;;5008832;28;20217;-84
2021/07/07 08:30:13;;;;;;;4.88;2.10;;;22.10;99.90;;;;;;5016232;28;20215;-84
2021/07/07 08:32:39;;;;;;;5.00;1.90;;;22.50;99.90;;;;;;5016853;28;20621;-84
2021/07/07 08:35:06;;;;;;;2.73;2.10;;;22.40;99.90;;;;;;5009018;28;20870;-85
2021/07/07 08:37:32;;;;;;;3.33;1.90;;;22.20;99.90;;;;;;5016295;28;20228;-84
2021/07/07 08:39:58;;;;;;;3.60;1.87;;;22.10;99.90;;;;;;5003704;28;20210;-85
2021/07/07 08:42:24;;;;;;;1.40;1.30;;;21.80;99.90;;;;;;4993245;28;20272;-84
2021/07/07 08:44:50;;;;;;;2.13;1.93;;;21.70;99.90;;;;;;5000065;28;20226;-87
2021/07/07 08:47:16;;;;;;;8.63;2.80;;;21.50;99.90;;;;;;4993018;28;20274;-84
2021/07/07 08:49:41;;;;;;;4.03;2.13;;;21.60;99.90;;;;;;4992877;28;20643;-84
2021/07/07 08:52:08;;;;;;;2.10;1.90;;;21.60;99.90;;;;;;5016609;28;20221;-84
2021/07/07 08:54:34;;;;;;;8.53;2.20;;;21.60;99.90;;;;;;4992767;28;20626;-84
2021/07/07 08:57:07;;;;;;;3.20;2.00;;;21.90;99.90;;;;;;4991985;28;20253;-84
2021/07/07 08:59:33;;;;;;;3.73;2.17;;;21.90;99.90;;;;;;5016171;28;20276;-87
2021/07/07 09:02:09;;;;;;;7.20;3.00;;;22.30;99.90;;;;;;5011209;28;20205;-84
2021/07/07 09:04:41;;;;;;;4.37;2.90;;;22.50;99.90;;;;;;5017276;28;20232;-84
2021/07/07 09:07:15;;;;;;;2.83;2.53;;;22.50;99.90;;;;;;5015557;28;20617;-84
2021/07/07 09:09:52;;;;;;;6.43;2.33;;;22.40;99.90;;;;;;5018207;28;20212;-84
2021/07/07 09:12:18;;;;;;;3.10;2.30;;;22.70;99.90;;;;;;5034867;28;20739;-83
2021/07/07 09:14:49;;;;;;;2.70;2.50;;;22.90;99.90;;;;;;5019242;28;20296;-84
2021/07/07 09:17:21;;;;;;;5.53;2.60;;;22.40;99.90;;;;;;5017290;28;20229;-85
2021/07/07 09:19:47;;;;;;;3.23;2.27;;;22.30;99.90;;;;;;5018703;28;20260;-85
2021/07/07 09:22:15;;;;;;;2.60;2.17;;;22.50;99.90;;;;;;5016701;28;20860;-84
2021/07/07 09:24:45;;;;;;;7.90;2.17;;;22.30;99.90;;;;;;5009296;28;20238;-85
2021/07/07 09:27:13;;;;;;;3.20;2.50;;;22.00;99.90;;;;;;5016510;28;20247;-86
2021/07/07 09:29:53;;;;;;;3.53;2.87;;;22.10;99.90;;;;;;5034412;28;20225;-84
2021/07/07 09:32:27;;;;;;;2.40;2.20;;;22.80;99.90;;;;;;5015492;28;20188;-85
2021/07/07 09:34:58;;;;;;;3.63;2.60;;;22.90;99.90;;;;;;5016494;28;20221;-84
2021/07/07 09:37:28;;;;;;;8.33;3.17;;;22.90;99.90;;;;;;5016184;28;20224;-84
2021/07/07 09:39:56;;;;;;;2.97;2.50;;;23.20;99.90;;;;;;5019762;28;20206;-83
2021/07/07 09:42:30;;;;;;;2.50;2.30;;;23.50;99.90;;;;;;5020231;28;20329;-84
2021/07/07 09:44:58;;;;;;;2.53;2.33;;;23.20;99.90;;;;;;5021660;28;20210;-85
2021/07/07 09:47:28;;;;;;;5.60;2.40;;;22.80;99.90;;;;;;5021619;28;20178;-83
2021/07/07 09:49:54;;;;;;;4.55;3.00;;;22.70;99.90;;;;;;5037397;28;20181;-83
2021/07/07 09:52:26;;;;;;;8.73;2.33;;;23.00;99.90;;;;;;5012527;28;20210;-84
2021/07/07 09:54:53;;;;;;;3.03;2.63;;;23.00;99.90;;;;;;5020079;28;20210;-84
2021/07/07 09:57:19;;;;;;;3.75;2.50;;;23.20;99.90;;;;;;5039777;28;20308;-86
2021/07/07 09:59:46;;;;;;;4.50;2.50;;;23.90;99.90;;;;;;5019725;28;20214;-84
2021/07/07 10:02:12;;;;;;;3.80;2.65;;;24.10;99.90;;;;;;5012818;28;20678;-84
2021/07/07 10:04:42;;;;;;;3.30;3.00;;;24.70;99.90;;;;;;5021903;28;20927;-83
2021/07/07 10:07:09;;;;;;;3.00;2.63;;;24.40;99.90;;;;;;5017225;28;20202;-84
2021/07/07 10:09:38;;;;;;;3.30;2.55;;;23.60;99.90;;;;;;5004130;28;20206;-84
2021/07/07 10:12:04;;;;;;;2.75;2.50;;;23.90;99.90;;;;;;5018685;28;20211;-84
2021/07/07 10:14:31;;;;;;;3.28;2.35;;;23.90;99.90;;;;;;5011844;28;20183;-86
2021/07/07 10:16:59;;;;;;;4.97;2.72;;;23.40;99.90;;;;;;5013221;28;20238;-85
2021/07/07 10:19:26;;;;;;;4.10;2.58;;;23.30;99.90;;;;;;5021327;28;20229;-90
2021/07/07 10:21:53;;;;;;;3.58;2.53;;;23.60;99.90;;;;;;5003310;28;20240;-85
2021/07/07 10:24:22;;;;;;;2.65;2.40;;;24.70;99.90;;;;;;5010371;28;20209;-88
2021/07/07 10:26:51;;;;;;;2.75;2.20;;;24.40;99.90;;;;;;5018777;28;20211;-86
2021/07/07 10:29:18;;;;;;;4.47;2.75;;;23.60;99.90;;;;;;5020199;28;20214;-86
2021/07/07 10:31:49;;;;;;;2.13;1.80;;;23.10;99.90;;;;;;5012519;28;20193;-86
2021/07/07 10:34:16;;;;;;;3.78;2.55;;;22.90;99.90;;;;;;5053123;28;20201;-85
2021/07/07 10:36:42;;;;;;;4.18;2.97;;;22.60;99.90;;;;;;5012394;28;20230;-85
2021/07/07 10:39:10;;;;;;;3.80;3.03;;;22.10;99.90;;;;;;5012978;28;20245;-86
2021/07/07 10:41:46;;;;;;;3.17;2.97;;;22.00;99.90;;;;;;5021271;28;20218;-87
2021/07/07 10:44:24;;;;;;;4.20;3.22;;;22.60;99.90;;;;;;5029072;28;20276;-86
2021/07/07 10:47:13;;;;;;;2.88;2.67;;;23.10;99.90;;;;;;5022410;28;21025;-86
2021/07/07 10:49:38;;;;;;;5.78;2.30;;;23.90;99.90;;;;;;5018433;28;20201;-87
2021/07/07 10:52:07;;;;;;;4.05;3.10;;;24.30;99.90;;;;;;5011863;28;20210;-87
2021/07/07 10:54:38;;;;;;;5.55;3.40;;;23.60;99.90;;;;;;5015522;28;20309;-87
2021/07/07 10:57:06;;;;;;;3.50;3.20;;;22.70;99.90;;;;;;5020344;28;20222;-85
2021/07/07 10:59:36;;;;;;;7.82;4.10;;;22.00;99.90;;;;;;5010335;28;20288;-86
2021/07/07 11:02:15;;;;;;;6.72;3.38;;;21.40;99.90;;;;;;5021217;28;20604;-85
2021/07/07 11:04:46;;;;;;;5.77;3.37;;;20.50;99.90;;;;;;5037717;28;20218;-84
2021/07/07 11:07:27;;;;;;;5.20;3.73;;;19.70;99.90;;;;;;5021496;28;20225;-84
2021/07/07 11:09:54;;;;;;;5.63;3.37;;;19.10;99.90;;;;;;5021239;28;20631;-84
2021/07/07 11:12:40;;;;;;;3.53;3.23;;;18.90;99.90;;;;;;4993702;28;20215;-85
2021/07/07 11:15:08;;;;;;;3.43;3.10;;;18.50;99.90;;;;;;5037443;28;20305;-86
2021/07/07 11:17:36;;;;;;;8.00;4.10;;;18.60;99.90;;;;;;5035219;28;20238;-83
2021/07/07 11:20:24;;;;;;;5.50;4.27;;;18.50;99.90;;;;;;5020927;28;20202;-82
2021/07/07 11:23:06;;;;;;;5.30;4.33;;;18.60;99.90;;;;;;5019165;28;20263;-85
2021/07/07 11:25:38;;;;;;;6.60;3.53;;;18.50;99.90;;;;;;5018889;28;20218;-85
2021/07/07 11:28:06;;;;;;;5.87;3.80;;;18.60;99.90;;;;;;5009084;28;20717;-84
2021/07/07 11:30:32;;;;;;;5.63;4.43;;;18.60;99.90;;;;;;5018973;28;20210;-83
2021/07/07 11:33:03;;;;;;;5.73;4.43;;;18.60;99.90;;;;;;5020669;28;20210;-86
2021/07/07 11:35:32;;;;;;;6.07;4.70;;;19.00;99.90;;;;;;5019373;28;20190;-87
2021/07/07 11:37:59;;;;;;;4.33;3.47;;;19.30;99.90;;;;;;5019970;28;20638;-84
2021/07/07 11:40:32;;;;;;;6.00;4.07;;;19.50;99.90;;;;;;5019557;28;20222;-83
2021/07/07 11:42:57;;;;;;;8.83;3.80;;;19.70;99.90;;;;;;5009878;28;20213;-85
2021/07/07 11:45:35;;;;;;;4.33;3.83;;;20.10;99.90;;;;;;5017683;28;20214;-86
2021/07/07 11:48:26;;;;;;;5.60;3.77;;;20.40;99.90;;;;;;5017317;28;20238;-87
2021/07/07 11:50:55;;;;;;;9.63;3.63;;;21.00;99.90;;;;;;5017894;28;21304;-86
2021/07/07 11:53:22;;;;;;;7.63;4.23;;;22.10;99.90;;;;;;5016745;28;20201;-87
2021/07/07 11:55:58;;;;;;;4.73;4.30;;;22.50;99.90;;;;;;5012434;28;20228;-86
2021/07/07 11:58:30;;;;;;;7.97;4.40;;;22.90;99.90;;;;;;5037706;28;20213;-85
2021/07/07 12:00:58;;;;;;;4.47;2.87;;;23.30;99.90;;;;;;5035712;28;20270;-86
2021/07/07 12:03:25;;;;;;;7.33;3.50;;;23.00;99.90;;;;;;5018010;28;21031;-86
2021/07/07 12:05:53;;;;;;;6.43;3.93;;;22.50;99.90;;;;;;5015679;28;20217;-87
2021/07/07 12:08:25;;;;;;;4.60;3.30;;;22.20;99.90;;;;;;5018467;28;20597;-88
2021/07/07 12:11:09;;;;;;;5.80;4.07;;;21.90;99.90;;;;;;5019537;28;20186;-86
2021/07/07 12:13:36;;;;;;;8.27;4.27;;;21.90;99.90;;;;;;5017740;28;20219;-85
2021/07/07 12:16:23;;;;;;;6.33;4.30;;;21.00;99.90;;;;;;5009752;28;20747;-86
2021/07/07 12:18:57;;;;;;;4.33;3.90;;;20.70;99.90;;;;;;5017754;28;20237;-86
2021/07/07 12:21:22;;;;;;;6.03;4.00;;;20.70;99.90;;;;;;5020113;28;20233;-87
2021/07/07 12:23:59;;;;;;;15.63;4.53;;;21.10;99.90;;;;;;5020950;28;20217;-86
2021/07/07 12:26:27;;;;;;;7.33;4.03;;;21.70;99.90;;;;;;5019517;28;20187;-87
2021/07/07 12:28:55;;;;;;;7.50;3.83;;;22.10;99.90;;;;;;5018712;28;20803;-89
2021/07/07 12:31:22;;;;;;;5.50;3.60;;;22.40;99.90;;;;;;5017849;28;20774;-87
2021/07/07 12:33:53;;;;;;;3.77;3.37;;;22.30;99.90;;;;;;5004468;28;20312;-87
2021/07/07 12:36:32;;;;;;;5.67;3.47;;;22.30;99.90;;;;;;5019001;28;20222;-86
2021/07/07 12:39:08;;;;;;;4.37;3.50;;;22.00;99.90;;;;;;5017586;28;20236;-87
2021/07/07 12:41:34;;;;;;;3.80;3.40;;;22.30;99.90;;;;;;5019059;28;20300;-88
2021/07/07 12:44:12;;;;;;;5.57;3.53;;;22.20;99.90;;;;;;5016915;28;20232;-89
2021/07/07 12:47:03;;;;;;;4.93;3.03;;;22.60;99.90;;;;;;5015939;28;20647;-87
2021/07/07 12:49:51;;;;;;;4.03;3.63;;;22.70;99.90;;;;;;5017901;28;20585;-87